createdAt,value
2023-04-08T00:00:46.860Z,8.45
2023-04-08T00:05:56.453Z,7.91
2023-04-08T00:10:59.736Z,7.43
2023-04-08T00:16:03.391Z,7.04
2023-04-08T00:21:06.684Z,6.76
2023-04-08T00:26:09.956Z,6.54
2023-04-08T00:31:13.436Z,7.39
2023-04-08T00:36:16.784Z,10.26
2023-04-08T00:41:20.222Z,11.09
2023-04-08T00:46:23.892Z,9.56
2023-04-08T00:51:27.646Z,8.58
2023-04-08T00:56:32.964Z,7.94
2023-04-08T01:01:56.916Z,7.45
2023-04-08T01:07:22.117Z,7.08
2023-04-08T01:12:27.875Z,6.76
2023-04-08T01:17:33.681Z,6.50
2023-04-08T01:22:57.654Z,6.29
2023-04-08T01:28:05.000Z,7.28
2023-04-08T01:33:11.900Z,10.29
2023-04-08T01:38:18.479Z,11.21
2023-04-08T01:43:22.124Z,9.68
2023-04-08T01:48:25.764Z,8.73
2023-04-08T01:53:29.063Z,8.09
2023-04-08T01:58:39.414Z,7.60
2023-04-08T02:03:44.688Z,7.18
2023-04-08T02:08:48.407Z,6.84
2023-04-08T02:13:53.439Z,7.54
2023-04-08T02:19:02.978Z,10.46
2023-04-08T02:24:09.524Z,11.30
2023-04-08T02:29:15.100Z,9.76
2023-04-08T02:34:20.016Z,8.71
2023-04-08T02:39:31.561Z,7.92
2023-04-08T02:44:34.947Z,7.36
2023-04-08T02:49:39.298Z,6.96
2023-04-08T02:54:42.572Z,7.64
2023-04-08T02:59:45.783Z,10.55
2023-04-08T03:04:49.230Z,11.44
2023-04-08T03:09:55.263Z,9.76
2023-04-08T03:14:58.489Z,8.63
2023-04-08T03:20:05.182Z,7.87
2023-04-08T03:25:08.909Z,7.29
2023-04-08T03:30:14.630Z,8.54
2023-04-08T03:35:18.215Z,11.08
2023-04-08T03:40:21.451Z,10.39
2023-04-08T03:45:24.747Z,8.88
2023-04-08T03:50:28.070Z,7.87
2023-04-08T03:55:31.368Z,7.24
2023-04-08T04:00:35.762Z,7.49
2023-04-08T04:05:39.985Z,10.22
2023-04-08T04:10:43.328Z,11.05
2023-04-08T04:15:46.977Z,9.41
2023-04-08T04:20:50.333Z,8.22
2023-04-08T04:25:53.879Z,7.46
2023-04-08T04:30:57.161Z,7.18
2023-04-08T04:36:00.595Z,9.60
2023-04-08T04:41:04.763Z,11.18
2023-04-08T04:46:09.288Z,9.58
2023-04-08T04:51:12.586Z,8.24
2023-04-08T04:56:19.699Z,7.53
2023-04-08T05:01:23.084Z,7.06
2023-04-08T05:06:27.395Z,7.66
2023-04-08T05:11:30.701Z,10.37
2023-04-08T05:16:34.669Z,11.24
2023-04-08T05:21:37.917Z,9.63
2023-04-08T05:26:41.316Z,8.42
2023-04-08T05:31:45.290Z,7.79
2023-04-08T05:36:52.658Z,7.48
2023-04-08T05:41:56.290Z,7.22
2023-04-08T05:47:00.608Z,6.97
2023-04-08T05:52:04.343Z,7.69
2023-04-08T05:57:09.271Z,10.57
2023-04-08T06:02:13.724Z,10.91
2023-04-08T06:07:16.973Z,9.52
2023-04-08T06:12:20.257Z,8.78
2023-04-08T06:17:23.968Z,8.22
2023-04-08T06:22:27.717Z,7.72
2023-04-08T06:27:31.053Z,7.43
2023-04-08T06:32:34.494Z,7.22
2023-04-08T06:37:38.786Z,7.07
2023-04-08T06:42:44.658Z,7.98
2023-04-08T06:48:12.729Z,11.11
2023-04-08T06:53:16.075Z,12.06
2023-04-08T06:58:19.269Z,10.74
2023-04-08T07:03:23.296Z,9.91
2023-04-08T07:08:27.508Z,9.29
2023-04-08T07:13:31.115Z,8.83
2023-04-08T07:18:34.491Z,8.54
2023-04-08T07:23:37.911Z,8.32
2023-04-08T07:28:41.512Z,8.17
2023-04-08T07:33:46.137Z,8.07
2023-04-08T07:38:49.636Z,7.99
2023-04-08T07:43:53.044Z,7.90
2023-04-08T07:48:56.263Z,7.83
2023-04-08T07:54:00.236Z,7.78
2023-04-08T07:59:03.564Z,8.65
2023-04-08T08:04:06.925Z,11.57
2023-04-08T08:09:10.194Z,12.41
2023-04-08T08:14:15.299Z,11.11
2023-04-08T08:19:18.672Z,10.36
2023-04-08T08:24:22.327Z,9.84
2023-04-08T08:29:25.714Z,9.49
2023-04-08T08:34:28.901Z,9.20
2023-04-08T08:39:32.264Z,8.95
2023-04-08T08:44:36.338Z,8.74
2023-04-08T08:49:40.076Z,8.59
2023-04-08T08:54:44.843Z,8.52
2023-04-08T08:59:48.070Z,8.47
2023-04-08T09:05:02.168Z,8.49
2023-04-08T09:10:06.722Z,8.55
2023-04-08T09:15:10.882Z,9.53
2023-04-08T09:20:15.533Z,12.61
2023-04-08T09:25:26.584Z,13.36
2023-04-08T09:30:32.709Z,12.19
2023-04-08T09:35:36.724Z,11.53
2023-04-08T09:40:43.147Z,11.04
2023-04-08T09:45:48.362Z,10.61
2023-04-08T09:50:54.627Z,10.26
2023-04-08T09:56:00.988Z,10.01
2023-04-08T10:01:06.312Z,9.78
2023-04-08T10:06:12.181Z,9.63
2023-04-08T10:11:16.834Z,9.52
2023-04-08T10:16:27.184Z,9.36
2023-04-08T10:21:43.865Z,9.22
2023-04-08T10:26:49.065Z,9.11
2023-04-08T10:31:56.246Z,9.03
2023-04-08T10:36:59.723Z,8.97
2023-04-08T10:42:04.263Z,8.94
2023-04-08T10:47:07.763Z,8.92
2023-04-08T10:52:21.757Z,9.88
2023-04-08T10:57:26.044Z,12.76
2023-04-08T11:02:34.109Z,12.93
2023-04-08T11:07:42.073Z,11.69
2023-04-08T11:12:45.735Z,11.06
2023-04-08T11:17:50.282Z,10.64
2023-04-08T11:22:54.408Z,10.30
2023-04-08T11:27:58.270Z,10.02
2023-04-08T11:33:02.178Z,9.77
2023-04-08T11:38:06.041Z,9.58
2023-04-08T11:43:15.625Z,9.45
2023-04-08T11:48:18.949Z,9.33
2023-04-08T11:53:26.191Z,9.24
2023-04-08T11:58:29.750Z,9.14
2023-04-08T12:03:33.215Z,9.10
2023-04-08T12:08:36.763Z,9.09
2023-04-08T12:13:40.191Z,10.07
2023-04-08T12:18:43.874Z,13.07
2023-04-08T12:23:47.410Z,13.68
2023-04-08T12:28:50.885Z,12.36
2023-04-08T12:33:54.368Z,11.61
2023-04-08T12:38:57.988Z,11.13
2023-04-08T12:44:01.365Z,10.73
2023-04-08T12:49:05.741Z,10.47
2023-04-08T12:54:09.768Z,10.30
2023-04-08T12:59:24.688Z,10.13
2023-04-08T13:04:28.389Z,9.94
2023-04-08T13:09:34.753Z,9.79
2023-04-08T13:14:38.868Z,9.70
2023-04-08T13:19:42.288Z,9.67
2023-04-08T13:24:45.336Z,10.67
2023-04-08T13:29:48.482Z,13.58
2023-04-08T13:34:51.681Z,14.11
2023-04-08T13:39:54.930Z,12.83
2023-04-08T13:44:58.128Z,12.11
2023-04-08T13:50:01.656Z,11.58
2023-04-08T13:55:05.446Z,11.21
2023-04-08T14:00:09.537Z,10.92
2023-04-08T14:05:15.915Z,10.67
2023-04-08T14:10:19.023Z,10.74
2023-04-08T14:15:22.297Z,13.43
2023-04-08T14:20:25.751Z,14.16
2023-04-08T14:25:29.881Z,12.90
2023-04-08T14:30:34.119Z,12.23
2023-04-08T14:35:38.363Z,11.80
2023-04-08T14:40:43.009Z,11.43
2023-04-08T14:45:47.021Z,11.10
2023-04-08T14:50:51.254Z,10.84
2023-04-08T14:55:55.422Z,10.63
2023-04-08T15:00:59.511Z,10.46
2023-04-08T15:06:08.948Z,10.33
2023-04-08T15:11:12.581Z,10.26
2023-04-08T17:25:32.006Z,14.19
2023-04-08T17:30:37.098Z,14.02
2023-04-08T17:35:41.125Z,12.82
2023-04-08T17:40:44.382Z,12.12
2023-04-08T17:45:50.219Z,11.62
2023-04-08T17:51:04.827Z,11.19
2023-04-08T17:56:08.115Z,10.79
2023-04-08T18:01:11.562Z,10.49
2023-04-08T18:06:14.850Z,10.25
2023-04-08T18:11:18.094Z,10.05
2023-04-08T18:16:22.273Z,9.88
2023-04-08T18:21:25.676Z,9.74
2023-04-08T18:38:37.191Z,14.48
2023-04-08T18:43:42.828Z,13.11
2023-04-08T18:54:54.231Z,11.66
2023-04-08T18:59:59.979Z,11.17
2023-04-08T19:05:04.260Z,10.79
2023-04-08T19:10:08.256Z,10.48
2023-04-08T19:15:11.499Z,10.22
2023-04-08T19:20:14.708Z,10.01
2023-04-08T19:26:08.842Z,9.83
2023-04-08T19:37:15.231Z,13.99
2023-04-08T19:48:10.436Z,12.71
2023-04-08T19:53:15.483Z,12.00
2023-04-08T19:58:22.921Z,11.46
2023-04-08T20:03:31.393Z,11.01
2023-04-08T20:08:39.528Z,10.64
2023-04-08T20:14:08.798Z,10.31
2023-04-08T20:20:19.835Z,10.08
2023-04-08T20:25:28.023Z,9.88
2023-04-08T20:42:53.041Z,13.99
2023-04-08T20:47:56.614Z,12.65
2023-04-08T20:53:00.083Z,11.85
2023-04-08T20:58:05.858Z,11.25
2023-04-08T21:03:09.281Z,10.76
2023-04-08T21:08:12.894Z,10.37
2023-04-08T21:13:16.110Z,10.06
2023-04-08T21:18:19.276Z,9.81
2023-04-08T21:23:22.868Z,10.51
2023-04-08T21:28:26.632Z,13.30
2023-04-08T21:33:29.934Z,14.15
2023-04-08T21:38:34.335Z,12.72
2023-04-08T21:43:37.738Z,11.81
2023-04-08T21:48:41.199Z,11.19
2023-04-08T21:53:45.181Z,10.73
2023-04-08T21:58:48.522Z,10.36
2023-04-08T22:03:54.097Z,10.05
2023-04-08T22:08:57.820Z,9.79
2023-04-08T22:14:01.137Z,10.47
2023-04-08T22:19:04.638Z,13.33
2023-04-08T22:24:08.710Z,14.13
2023-04-08T22:29:12.205Z,12.68
2023-04-08T22:34:15.790Z,11.78
2023-04-08T22:39:19.248Z,11.16
2023-04-08T22:44:22.882Z,10.69
2023-04-08T22:49:26.377Z,10.29
2023-04-08T22:54:32.839Z,9.94
2023-04-08T22:59:40.412Z,9.65
2023-04-08T23:04:49.493Z,10.39
2023-04-08T23:10:00.230Z,13.18
2023-04-08T23:15:03.823Z,13.91
2023-04-08T23:20:07.584Z,12.41
2023-04-08T23:25:11.046Z,11.45
2023-04-08T23:30:14.365Z,10.78
2023-04-08T23:35:17.817Z,10.24
2023-04-08T23:40:21.418Z,9.80
2023-04-08T23:45:25.028Z,9.42
2023-04-08T23:50:28.172Z,9.09
2023-04-08T23:55:31.543Z,8.82
